KGXY/GXY METAR and TAF weather

Enter ICAO airport designator
Station Type Date Time Source
KGXY METAR 2019/04/25 01:56 UTC NOAA

KGXY 250156Z 19005KT 10SM CLR 17/04 A2987 RMK AO2 SLP102 T01670044


Station Type Date Time Source
KGXY Decoded METAR 2019/04/25 01:56 UTC NOAA

Greeley, Greeley-Weld County Airport, CO, United States (KGXY) 40-26N 104-38W
Apr 24, 2019 - 09:56 PM EDT / 2019.04.25 0156 UTC
Wind: from the S (190 degrees) at 6 MPH (5 KT):0
Visibility: 10 mile(s):0
Sky conditions: clear
Temperature: 62.1 F (16.7 C)
Dew Point: 39.9 F (4.4 C)
Relative Humidity: 43%
Pressure (altimeter): 29.87 in. Hg (1011 hPa)
ob: KGXY 250156Z 19005KT 10SM CLR 17/04 A2987 RMK AO2 SLP102 T01670044
cycle: 2

Station Type Date Time Source
KGXY TAF UTC NOAA

Error!

Example: see airport list